sensor_id;sensor_type;location;lat;lon;timestamp;temperature;humidity
3860;DHT22;1945;52.036;8.614;2023-06-10T00:01:51;16.50;1.00
3860;DHT22;1945;52.036;8.614;2023-06-10T00:04:20;16.50;1.00
3860;DHT22;1945;52.036;8.614;2023-06-10T00:06:47;16.50;1.00
3860;DHT22;1945;52.036;8.614;2023-06-10T00:09:15;16.50;1.00
3860;DHT22;1945;52.036;8.614;2023-06-10T00:11:42;16.40;1.00
3860;DHT22;1945;52.036;8.614;2023-06-10T00:14:08;16.30;1.00
3860;DHT22;1945;52.036;8.614;2023-06-10T00:16:35;16.30;1.00
3860;DHT22;1945;52.036;8.614;2023-06-10T00:19:05;16.20;1.00
3860;DHT22;1945;52.036;8.614;2023-06-10T00:21:34;16.20;1.00
3860;DHT22;1945;52.036;8.614;2023-06-10T00:24:03;16.10;1.00
3860;DHT22;1945;52.036;8.614;2023-06-10T00:26:30;16.10;1.00
3860;DHT22;1945;52.036;8.614;2023-06-10T00:28:57;16.00;1.00
3860;DHT22;1945;52.036;8.614;2023-06-10T00:31:23;15.90;1.00
3860;DHT22;1945;52.036;8.614;2023-06-10T00:33:51;15.90;1.00
3860;DHT22;1945;52.036;8.614;2023-06-10T00:36:20;15.90;1.00
3860;DHT22;1945;52.036;8.614;2023-06-10T00:38:47;15.90;1.00
3860;DHT22;1945;52.036;8.614;2023-06-10T00:41:13;15.80;1.00
3860;DHT22;1945;52.036;8.614;2023-06-10T00:43:40;15.90;1.00
3860;DHT22;1945;52.036;8.614;2023-06-10T00:46:07;15.80;1.00
3860;DHT22;1945;52.036;8.614;2023-06-10T00:48:34;15.80;1.00
3860;DHT22;1945;52.036;8.614;2023-06-10T00:51:01;15.80;1.00
3860;DHT22;1945;52.036;8.614;2023-06-10T00:53:29;15.80;1.00
3860;DHT22;1945;52.036;8.614;2023-06-10T00:55:56;15.70;1.00
3860;DHT22;1945;52.036;8.614;2023-06-10T00:58:23;15.70;1.00
3860;DHT22;1945;52.036;8.614;2023-06-10T01:00:51;15.70;1.00
3860;DHT22;1945;52.036;8.614;2023-06-10T01:03:19;15.70;1.00
3860;DHT22;1945;52.036;8.614;2023-06-10T01:05:53;15.70;1.00
3860;DHT22;1945;52.036;8.614;2023-06-10T01:08:27;15.50;1.00
3860;DHT22;1945;52.036;8.614;2023-06-10T01:10:59;15.50;1.00
3860;DHT22;1945;52.036;8.614;2023-06-10T01:13:27;15.50;1.00
3860;DHT22;1945;52.036;8.614;2023-06-10T01:15:55;15.30;1.00
3860;DHT22;1945;52.036;8.614;2023-06-10T01:18:22;15.30;1.00
3860;DHT22;1945;52.036;8.614;2023-06-10T01:20:49;15.30;1.00
3860;DHT22;1945;52.036;8.614;2023-06-10T01:23:18;15.30;1.00
3860;DHT22;1945;52.036;8.614;2023-06-10T01:25:49;15.30;1.00
3860;DHT22;1945;52.036;8.614;2023-06-10T01:28:25;15.20;1.00
3860;DHT22;1945;52.036;8.614;2023-06-10T01:31:00;15.10;1.00
3860;DHT22;1945;52.036;8.614;2023-06-10T01:33:35;15.10;1.00
3860;DHT22;1945;52.036;8.614;2023-06-10T01:36:03;15.10;1.00
3860;DHT22;1945;52.036;8.614;2023-06-10T01:38:36;15.10;1.00
3860;DHT22;1945;52.036;8.614;2023-06-10T01:41:05;15.10;1.00
3860;DHT22;1945;52.036;8.614;2023-06-10T01:43:33;15.00;1.00
3860;DHT22;1945;52.036;8.614;2023-06-10T01:46:00;15.00;1.00
3860;DHT22;1945;52.036;8.614;2023-06-10T01:48:26;14.90;1.00
3860;DHT22;1945;52.036;8.614;2023-06-10T01:50:53;14.90;1.00
3860;DHT22;1945;52.036;8.614;2023-06-10T01:53:21;14.80;1.00
3860;DHT22;1945;52.036;8.614;2023-06-10T01:55:49;14.70;1.00
3860;DHT22;1945;52.036;8.614;2023-06-10T01:58:16;14.70;1.00
3860;DHT22;1945;52.036;8.614;2023-06-10T02:00:43;14.80;1.00
3860;DHT22;1945;52.036;8.614;2023-06-10T02:03:09;14.80;1.00
3860;DHT22;1945;52.036;8.614;2023-06-10T02:05:36;14.90;1.00
3860;DHT22;1945;52.036;8.614;2023-06-10T02:08:03;14.80;1.00
3860;DHT22;1945;52.036;8.614;2023-06-10T02:10:29;14.80;1.00
3860;DHT22;1945;52.036;8.614;2023-06-10T02:12:58;14.80;1.00
3860;DHT22;1945;52.036;8.614;2023-06-10T02:15:25;14.80;1.00
3860;DHT22;1945;52.036;8.614;2023-06-10T02:17:51;14.80;1.00
3860;DHT22;1945;52.036;8.614;2023-06-10T02:20:20;14.80;1.00
3860;DHT22;1945;52.036;8.614;2023-06-10T02:22:46;14.70;1.00
3860;DHT22;1945;52.036;8.614;2023-06-10T02:25:16;14.70;1.00
3860;DHT22;1945;52.036;8.614;2023-06-10T02:27:43;14.60;1.00
3860;DHT22;1945;52.036;8.614;2023-06-10T02:30:12;14.60;1.00
3860;DHT22;1945;52.036;8.614;2023-06-10T02:32:39;14.60;1.00
3860;DHT22;1945;52.036;8.614;2023-06-10T02:35:06;14.60;1.00
3860;DHT22;1945;52.036;8.614;2023-06-10T02:37:33;14.70;1.00
3860;DHT22;1945;52.036;8.614;2023-06-10T02:40:00;14.50;1.00
3860;DHT22;1945;52.036;8.614;2023-06-10T02:42:26;14.40;1.00
3860;DHT22;1945;52.036;8.614;2023-06-10T02:44:53;14.40;1.00
3860;DHT22;1945;52.036;8.614;2023-06-10T02:47:21;14.40;1.00
3860;DHT22;1945;52.036;8.614;2023-06-10T02:49:48;14.40;1.00
3860;DHT22;1945;52.036;8.614;2023-06-10T02:52:14;14.40;1.00
3860;DHT22;1945;52.036;8.614;2023-06-10T02:54:41;14.50;1.00
3860;DHT22;1945;52.036;8.614;2023-06-10T02:57:08;14.30;1.00
3860;DHT22;1945;52.036;8.614;2023-06-10T02:59:35;14.20;1.00
3860;DHT22;1945;52.036;8.614;2023-06-10T03:02:02;14.30;1.00
3860;DHT22;1945;52.036;8.614;2023-06-10T03:04:30;14.30;1.00
3860;DHT22;1945;52.036;8.614;2023-06-10T03:06:56;14.30;1.00
3860;DHT22;1945;52.036;8.614;2023-06-10T03:09:23;14.20;1.00
3860;DHT22;1945;52.036;8.614;2023-06-10T03:11:50;14.20;1.00
3860;DHT22;1945;52.036;8.614;2023-06-10T03:14:16;14.40;1.00
3860;DHT22;1945;52.036;8.614;2023-06-10T03:16:43;14.20;1.00
3860;DHT22;1945;52.036;8.614;2023-06-10T03:19:11;14.10;1.00
3860;DHT22;1945;52.036;8.614;2023-06-10T03:21:39;14.10;1.00
3860;DHT22;1945;52.036;8.614;2023-06-10T03:24:07;14.10;1.00
3860;DHT22;1945;52.036;8.614;2023-06-10T03:26:33;14.40;1.00
3860;DHT22;1945;52.036;8.614;2023-06-10T03:29:00;14.60;1.00
3860;DHT22;1945;52.036;8.614;2023-06-10T03:31:27;14.70;1.00
3860;DHT22;1945;52.036;8.614;2023-06-10T03:33:53;14.90;1.00
3860;DHT22;1945;52.036;8.614;2023-06-10T03:36:20;15.10;1.00
3860;DHT22;1945;52.036;8.614;2023-06-10T03:38:48;15.30;1.00
3860;DHT22;1945;52.036;8.614;2023-06-10T03:41:17;15.50;1.00
3860;DHT22;1945;52.036;8.614;2023-06-10T03:43:43;15.60;1.00
3860;DHT22;1945;52.036;8.614;2023-06-10T03:46:10;15.80;1.00
3860;DHT22;1945;52.036;8.614;2023-06-10T03:48:37;15.90;1.00
3860;DHT22;1945;52.036;8.614;2023-06-10T03:51:04;16.00;1.00
3860;DHT22;1945;52.036;8.614;2023-06-10T03:53:30;16.30;1.00
3860;DHT22;1945;52.036;8.614;2023-06-10T03:55:59;16.40;99.90
3860;DHT22;1945;52.036;8.614;2023-06-10T03:58:26;16.50;99.90
3860;DHT22;1945;52.036;8.614;2023-06-10T04:00:52;16.60;99.90
3860;DHT22;1945;52.036;8.614;2023-06-10T04:03:20;16.80;99.90
3860;DHT22;1945;52.036;8.614;2023-06-10T04:05:48;16.90;99.90
3860;DHT22;1945;52.036;8.614;2023-06-10T04:08:15;17.10;99.90
3860;DHT22;1945;52.036;8.614;2023-06-10T04:10:42;17.00;99.90
3860;DHT22;1945;52.036;8.614;2023-06-10T04:13:10;17.40;99.90
3860;DHT22;1945;52.036;8.614;2023-06-10T04:15:36;17.60;99.90
3860;DHT22;1945;52.036;8.614;2023-06-10T04:18:04;17.90;99.90
3860;DHT22;1945;52.036;8.614;2023-06-10T04:20:30;18.20;25.90
3860;DHT22;1945;52.036;8.614;2023-06-10T04:22:57;18.40;1.00
3860;DHT22;1945;52.036;8.614;2023-06-10T04:25:25;18.70;1.00
3860;DHT22;1945;52.036;8.614;2023-06-10T04:27:51;18.80;1.00
3860;DHT22;1945;52.036;8.614;2023-06-10T04:30:19;19.20;1.00
3860;DHT22;1945;52.036;8.614;2023-06-10T04:32:47;19.50;1.00
3860;DHT22;1945;52.036;8.614;2023-06-10T04:35:15;19.50;1.00
3860;DHT22;1945;52.036;8.614;2023-06-10T04:37:42;19.70;1.00
3860;DHT22;1945;52.036;8.614;2023-06-10T04:40:09;20.00;1.00
3860;DHT22;1945;52.036;8.614;2023-06-10T04:42:37;20.30;1.00
3860;DHT22;1945;52.036;8.614;2023-06-10T04:45:04;20.60;1.00
3860;DHT22;1945;52.036;8.614;2023-06-10T04:47:32;20.60;1.00
3860;DHT22;1945;52.036;8.614;2023-06-10T04:49:59;20.30;1.00
3860;DHT22;1945;52.036;8.614;2023-06-10T04:52:26;20.30;1.00
3860;DHT22;1945;52.036;8.614;2023-06-10T04:54:53;20.90;99.90
3860;DHT22;1945;52.036;8.614;2023-06-10T04:57:20;21.40;99.90
3860;DHT22;1945;52.036;8.614;2023-06-10T04:59:47;21.50;99.90
3860;DHT22;1945;52.036;8.614;2023-06-10T05:02:13;21.90;99.90
3860;DHT22;1945;52.036;8.614;2023-06-10T05:04:43;22.10;99.90
3860;DHT22;1945;52.036;8.614;2023-06-10T05:07:10;22.30;99.90
3860;DHT22;1945;52.036;8.614;2023-06-10T05:09:36;22.30;99.90
3860;DHT22;1945;52.036;8.614;2023-06-10T05:12:04;22.50;99.90
3860;DHT22;1945;52.036;8.614;2023-06-10T05:14:31;22.30;41.60
3860;DHT22;1945;52.036;8.614;2023-06-10T05:16:57;22.80;99.90
3860;DHT22;1945;52.036;8.614;2023-06-10T05:19:24;22.90;30.00
3860;DHT22;1945;52.036;8.614;2023-06-10T05:21:52;23.10;45.90
3860;DHT22;1945;52.036;8.614;2023-06-10T05:24:19;23.50;1.00
3860;DHT22;1945;52.036;8.614;2023-06-10T05:26:46;23.60;1.00
3860;DHT22;1945;52.036;8.614;2023-06-10T05:29:14;23.60;1.00
3860;DHT22;1945;52.036;8.614;2023-06-10T05:31:41;23.80;1.00
3860;DHT22;1945;52.036;8.614;2023-06-10T05:34:08;24.10;1.00
3860;DHT22;1945;52.036;8.614;2023-06-10T05:36:34;24.00;1.00
3860;DHT22;1945;52.036;8.614;2023-06-10T05:39:02;24.10;1.00
3860;DHT22;1945;52.036;8.614;2023-06-10T05:41:29;24.30;1.00
3860;DHT22;1945;52.036;8.614;2023-06-10T05:43:56;24.40;1.00
3860;DHT22;1945;52.036;8.614;2023-06-10T05:46:23;24.60;1.00
3860;DHT22;1945;52.036;8.614;2023-06-10T05:48:49;24.60;1.00
3860;DHT22;1945;52.036;8.614;2023-06-10T05:51:16;24.80;1.00
3860;DHT22;1945;52.036;8.614;2023-06-10T05:53:43;25.10;1.00
3860;DHT22;1945;52.036;8.614;2023-06-10T05:56:13;25.30;1.00
3860;DHT22;1945;52.036;8.614;2023-06-10T05:58:39;25.40;1.00
3860;DHT22;1945;52.036;8.614;2023-06-10T06:01:06;25.30;1.00
3860;DHT22;1945;52.036;8.614;2023-06-10T06:03:33;25.50;1.00
3860;DHT22;1945;52.036;8.614;2023-06-10T06:05:59;25.60;1.00
3860;DHT22;1945;52.036;8.614;2023-06-10T06:08:26;25.60;1.00
3860;DHT22;1945;52.036;8.614;2023-06-10T06:10:53;25.70;1.00
3860;DHT22;1945;52.036;8.614;2023-06-10T06:13:21;26.10;1.00
3860;DHT22;1945;52.036;8.614;2023-06-10T06:15:48;26.30;1.00
3860;DHT22;1945;52.036;8.614;2023-06-10T06:18:15;26.30;1.00
3860;DHT22;1945;52.036;8.614;2023-06-10T06:20:41;26.70;1.00
3860;DHT22;1945;52.036;8.614;2023-06-10T06:23:08;26.60;1.00
3860;DHT22;1945;52.036;8.614;2023-06-10T06:25:36;26.30;1.00
3860;DHT22;1945;52.036;8.614;2023-06-10T06:28:04;26.00;1.00
3860;DHT22;1945;52.036;8.614;2023-06-10T06:30:32;26.50;1.00
3860;DHT22;1945;52.036;8.614;2023-06-10T06:32:59;26.60;1.00
3860;DHT22;1945;52.036;8.614;2023-06-10T06:35:25;26.50;1.00
3860;DHT22;1945;52.036;8.614;2023-06-10T06:37:52;25.80;1.00
3860;DHT22;1945;52.036;8.614;2023-06-10T06:40:19;26.40;1.00
3860;DHT22;1945;52.036;8.614;2023-06-10T06:42:45;26.50;1.00
3860;DHT22;1945;52.036;8.614;2023-06-10T06:45:12;26.80;1.00
3860;DHT22;1945;52.036;8.614;2023-06-10T06:47:40;26.60;1.00
3860;DHT22;1945;52.036;8.614;2023-06-10T06:50:07;27.30;1.00
3860;DHT22;1945;52.036;8.614;2023-06-10T06:52:34;26.90;1.00
3860;DHT22;1945;52.036;8.614;2023-06-10T06:55:01;27.10;1.00
3860;DHT22;1945;52.036;8.614;2023-06-10T06:57:28;27.00;1.00
3860;DHT22;1945;52.036;8.614;2023-06-10T06:59:54;27.50;1.00
3860;DHT22;1945;52.036;8.614;2023-06-10T07:02:21;27.30;1.00
3860;DHT22;1945;52.036;8.614;2023-06-10T07:04:49;27.40;1.00
3860;DHT22;1945;52.036;8.614;2023-06-10T07:07:16;27.30;1.00
3860;DHT22;1945;52.036;8.614;2023-06-10T07:09:43;27.50;1.00
3860;DHT22;1945;52.036;8.614;2023-06-10T07:12:10;28.00;1.00
3860;DHT22;1945;52.036;8.614;2023-06-10T07:14:36;27.50;1.00
3860;DHT22;1945;52.036;8.614;2023-06-10T07:17:03;28.00;1.00
3860;DHT22;1945;52.036;8.614;2023-06-10T07:19:30;27.40;1.00
3860;DHT22;1945;52.036;8.614;2023-06-10T07:21:58;27.40;1.00
3860;DHT22;1945;52.036;8.614;2023-06-10T07:24:25;27.70;1.00
3860;DHT22;1945;52.036;8.614;2023-06-10T07:26:51;28.10;1.00
3860;DHT22;1945;52.036;8.614;2023-06-10T07:29:18;27.60;1.00
3860;DHT22;1945;52.036;8.614;2023-06-10T07:31:45;27.40;1.00
3860;DHT22;1945;52.036;8.614;2023-06-10T07:34:11;27.40;1.00
3860;DHT22;1945;52.036;8.614;2023-06-10T07:36:38;27.80;1.00
3860;DHT22;1945;52.036;8.614;2023-06-10T07:39:06;27.20;1.00
3860;DHT22;1945;52.036;8.614;2023-06-10T07:41:33;27.90;1.00
3860;DHT22;1945;52.036;8.614;2023-06-10T07:44:00;27.60;1.00
3860;DHT22;1945;52.036;8.614;2023-06-10T07:46:27;27.10;1.00
3860;DHT22;1945;52.036;8.614;2023-06-10T07:48:54;27.60;1.00
3860;DHT22;1945;52.036;8.614;2023-06-10T07:51:21;27.50;1.00
3860;DHT22;1945;52.036;8.614;2023-06-10T07:53:48;27.30;1.00
3860;DHT22;1945;52.036;8.614;2023-06-10T07:56:16;27.10;1.00
3860;DHT22;1945;52.036;8.614;2023-06-10T07:58:43;27.20;1.00
3860;DHT22;1945;52.036;8.614;2023-06-10T08:01:09;27.70;1.00
3860;DHT22;1945;52.036;8.614;2023-06-10T08:03:36;27.70;1.00
3860;DHT22;1945;52.036;8.614;2023-06-10T08:06:03;27.70;1.00
3860;DHT22;1945;52.036;8.614;2023-06-10T08:08:31;27.70;1.00
3860;DHT22;1945;52.036;8.614;2023-06-10T08:10:57;28.20;1.00
3860;DHT22;1945;52.036;8.614;2023-06-10T08:13:25;28.50;1.00
3860;DHT22;1945;52.036;8.614;2023-06-10T08:15:52;28.60;1.00
3860;DHT22;1945;52.036;8.614;2023-06-10T08:18:21;28.60;1.00
3860;DHT22;1945;52.036;8.614;2023-06-10T08:20:47;28.20;1.00
3860;DHT22;1945;52.036;8.614;2023-06-10T08:23:14;28.40;1.00
3860;DHT22;1945;52.036;8.614;2023-06-10T08:25:41;28.20;1.00
3860;DHT22;1945;52.036;8.614;2023-06-10T08:28:08;28.40;1.00
3860;DHT22;1945;52.036;8.614;2023-06-10T08:30:36;27.90;1.00
3860;DHT22;1945;52.036;8.614;2023-06-10T08:33:02;27.30;1.00
3860;DHT22;1945;52.036;8.614;2023-06-10T08:35:29;27.90;1.00
3860;DHT22;1945;52.036;8.614;2023-06-10T08:37:56;27.80;1.00
3860;DHT22;1945;52.036;8.614;2023-06-10T08:40:22;27.90;1.00
3860;DHT22;1945;52.036;8.614;2023-06-10T08:42:55;27.80;1.00
3860;DHT22;1945;52.036;8.614;2023-06-10T08:45:23;27.70;99.90
3860;DHT22;1945;52.036;8.614;2023-06-10T08:47:53;27.60;99.90
3860;DHT22;1945;52.036;8.614;2023-06-10T08:50:21;27.80;1.00
3860;DHT22;1945;52.036;8.614;2023-06-10T08:52:49;27.90;1.00
3860;DHT22;1945;52.036;8.614;2023-06-10T08:55:19;27.50;99.90
3860;DHT22;1945;52.036;8.614;2023-06-10T08:57:52;27.70;1.00
3860;DHT22;1945;52.036;8.614;2023-06-10T09:00:19;27.50;99.90
3860;DHT22;1945;52.036;8.614;2023-06-10T09:02:46;27.10;99.90
3860;DHT22;1945;52.036;8.614;2023-06-10T09:05:18;27.10;99.90
3860;DHT22;1945;52.036;8.614;2023-06-10T09:07:46;27.10;99.90
3860;DHT22;1945;52.036;8.614;2023-06-10T09:10:14;27.50;1.00
3860;DHT22;1945;52.036;8.614;2023-06-10T09:12:40;27.50;1.00
3860;DHT22;1945;52.036;8.614;2023-06-10T09:15:08;27.30;1.00
3860;DHT22;1945;52.036;8.614;2023-06-10T09:17:37;27.40;1.00
3860;DHT22;1945;52.036;8.614;2023-06-10T09:20:06;27.20;99.90
3860;DHT22;1945;52.036;8.614;2023-06-10T09:22:35;27.20;1.00
3860;DHT22;1945;52.036;8.614;2023-06-10T09:25:02;27.00;99.90
3860;DHT22;1945;52.036;8.614;2023-06-10T09:27:30;27.00;1.00
3860;DHT22;1945;52.036;8.614;2023-06-10T09:29:57;26.90;99.90
3860;DHT22;1945;52.036;8.614;2023-06-10T09:32:24;27.10;99.90
3860;DHT22;1945;52.036;8.614;2023-06-10T09:34:51;26.70;99.90
3860;DHT22;1945;52.036;8.614;2023-06-10T09:37:22;26.90;99.90
3860;DHT22;1945;52.036;8.614;2023-06-10T09:40:04;26.70;1.00
3860;DHT22;1945;52.036;8.614;2023-06-10T09:42:35;26.50;99.90
3860;DHT22;1945;52.036;8.614;2023-06-10T09:45:02;26.60;99.90
3860;DHT22;1945;52.036;8.614;2023-06-10T09:47:29;26.50;99.90
3860;DHT22;1945;52.036;8.614;2023-06-10T09:49:55;26.60;99.90
3860;DHT22;1945;52.036;8.614;2023-06-10T09:52:22;26.70;99.90
3860;DHT22;1945;52.036;8.614;2023-06-10T09:54:50;26.70;1.00
3860;DHT22;1945;52.036;8.614;2023-06-10T09:57:18;26.70;99.90
3860;DHT22;1945;52.036;8.614;2023-06-10T09:59:45;27.00;1.00
3860;DHT22;1945;52.036;8.614;2023-06-10T10:02:15;26.80;99.90
3860;DHT22;1945;52.036;8.614;2023-06-10T10:04:42;27.00;1.00
3860;DHT22;1945;52.036;8.614;2023-06-10T10:07:09;27.10;1.00
3860;DHT22;1945;52.036;8.614;2023-06-10T10:09:36;27.00;99.90
3860;DHT22;1945;52.036;8.614;2023-06-10T10:12:05;27.00;1.00
3860;DHT22;1945;52.036;8.614;2023-06-10T10:14:35;26.80;99.90
3860;DHT22;1945;52.036;8.614;2023-06-10T10:17:05;26.80;99.90
3860;DHT22;1945;52.036;8.614;2023-06-10T10:19:38;26.90;99.90
3860;DHT22;1945;52.036;8.614;2023-06-10T10:22:08;26.90;99.90
3860;DHT22;1945;52.036;8.614;2023-06-10T10:24:42;27.00;99.90
3860;DHT22;1945;52.036;8.614;2023-06-10T10:27:16;27.00;99.90
3860;DHT22;1945;52.036;8.614;2023-06-10T10:29:47;26.80;99.90
3860;DHT22;1945;52.036;8.614;2023-06-10T10:32:16;27.00;99.90
3860;DHT22;1945;52.036;8.614;2023-06-10T10:34:49;26.90;99.90
3860;DHT22;1945;52.036;8.614;2023-06-10T10:37:17;26.80;99.90
3860;DHT22;1945;52.036;8.614;2023-06-10T10:39:45;26.90;99.90
3860;DHT22;1945;52.036;8.614;2023-06-10T10:42:12;26.90;99.90
3860;DHT22;1945;52.036;8.614;2023-06-10T10:44:40;26.80;99.90
3860;DHT22;1945;52.036;8.614;2023-06-10T10:47:10;26.80;99.90
3860;DHT22;1945;52.036;8.614;2023-06-10T10:49:37;26.80;99.90
3860;DHT22;1945;52.036;8.614;2023-06-10T10:52:04;26.80;99.90
3860;DHT22;1945;52.036;8.614;2023-06-10T10:54:33;27.10;99.90
3860;DHT22;1945;52.036;8.614;2023-06-10T10:57:13;27.10;99.90
3860;DHT22;1945;52.036;8.614;2023-06-10T10:59:57;26.90;99.90
3860;DHT22;1945;52.036;8.614;2023-06-10T11:02:35;27.20;99.90
3860;DHT22;1945;52.036;8.614;2023-06-10T11:05:05;27.20;99.90
3860;DHT22;1945;52.036;8.614;2023-06-10T11:07:32;27.30;99.90
3860;DHT22;1945;52.036;8.614;2023-06-10T11:10:00;27.20;99.90
3860;DHT22;1945;52.036;8.614;2023-06-10T11:12:41;27.30;99.90
3860;DHT22;1945;52.036;8.614;2023-06-10T11:15:08;27.30;99.90
3860;DHT22;1945;52.036;8.614;2023-06-10T11:17:36;27.40;99.90
3860;DHT22;1945;52.036;8.614;2023-06-10T11:20:03;27.30;99.90
3860;DHT22;1945;52.036;8.614;2023-06-10T11:22:31;27.30;99.90
3860;DHT22;1945;52.036;8.614;2023-06-10T11:24:57;27.30;99.90
3860;DHT22;1945;52.036;8.614;2023-06-10T11:27:24;27.40;99.90
3860;DHT22;1945;52.036;8.614;2023-06-10T11:29:58;27.30;99.90
3860;DHT22;1945;52.036;8.614;2023-06-10T11:32:45;27.40;99.90
3860;DHT22;1945;52.036;8.614;2023-06-10T11:35:17;27.30;99.90
3860;DHT22;1945;52.036;8.614;2023-06-10T11:37:44;27.30;99.90
3860;DHT22;1945;52.036;8.614;2023-06-10T11:40:12;27.40;99.90
3860;DHT22;1945;52.036;8.614;2023-06-10T11:42:40;27.30;99.90
3860;DHT22;1945;52.036;8.614;2023-06-10T11:45:07;27.20;99.90
3860;DHT22;1945;52.036;8.614;2023-06-10T11:47:35;27.40;99.90
3860;DHT22;1945;52.036;8.614;2023-06-10T11:50:03;27.30;99.90
3860;DHT22;1945;52.036;8.614;2023-06-10T11:52:31;27.40;99.90
3860;DHT22;1945;52.036;8.614;2023-06-10T11:54:59;27.20;99.90
3860;DHT22;1945;52.036;8.614;2023-06-10T11:57:26;27.30;99.90
3860;DHT22;1945;52.036;8.614;2023-06-10T11:59:52;27.20;99.90
3860;DHT22;1945;52.036;8.614;2023-06-10T12:02:19;27.20;99.90
3860;DHT22;1945;52.036;8.614;2023-06-10T12:04:47;27.10;99.90
3860;DHT22;1945;52.036;8.614;2023-06-10T12:07:19;27.30;99.90
3860;DHT22;1945;52.036;8.614;2023-06-10T12:09:58;27.10;99.90
3860;DHT22;1945;52.036;8.614;2023-06-10T12:12:26;27.40;99.90
3860;DHT22;1945;52.036;8.614;2023-06-10T12:14:55;27.30;99.90
3860;DHT22;1945;52.036;8.614;2023-06-10T12:17:23;27.40;99.90
3860;DHT22;1945;52.036;8.614;2023-06-10T12:19:50;27.40;1.00
3860;DHT22;1945;52.036;8.614;2023-06-10T12:22:18;27.30;99.90
3860;DHT22;1945;52.036;8.614;2023-06-10T12:24:57;27.10;99.90
3860;DHT22;1945;52.036;8.614;2023-06-10T12:27:25;27.30;1.00
3860;DHT22;1945;52.036;8.614;2023-06-10T12:29:55;27.50;1.00
3860;DHT22;1945;52.036;8.614;2023-06-10T12:32:35;27.30;1.00
3860;DHT22;1945;52.036;8.614;2023-06-10T12:35:03;27.20;1.00
3860;DHT22;1945;52.036;8.614;2023-06-10T12:37:32;27.20;1.00
3860;DHT22;1945;52.036;8.614;2023-06-10T12:40:00;27.30;1.00
3860;DHT22;1945;52.036;8.614;2023-06-10T12:42:28;27.30;99.90
3860;DHT22;1945;52.036;8.614;2023-06-10T12:44:55;27.20;1.00
3860;DHT22;1945;52.036;8.614;2023-06-10T12:47:30;27.30;1.00
3860;DHT22;1945;52.036;8.614;2023-06-10T12:49:58;27.30;99.90
3860;DHT22;1945;52.036;8.614;2023-06-10T12:52:25;27.50;1.00
3860;DHT22;1945;52.036;8.614;2023-06-10T12:54:53;27.50;99.90
3860;DHT22;1945;52.036;8.614;2023-06-10T12:57:20;27.40;99.90
3860;DHT22;1945;52.036;8.614;2023-06-10T12:59:47;27.40;99.90
3860;DHT22;1945;52.036;8.614;2023-06-10T13:02:18;27.30;99.90
3860;DHT22;1945;52.036;8.614;2023-06-10T13:04:45;27.50;99.90
3860;DHT22;1945;52.036;8.614;2023-06-10T13:07:12;27.40;99.90
3860;DHT22;1945;52.036;8.614;2023-06-10T13:09:39;27.60;99.90
3860;DHT22;1945;52.036;8.614;2023-06-10T13:12:08;27.60;99.90
3860;DHT22;1945;52.036;8.614;2023-06-10T13:14:35;27.40;99.90
3860;DHT22;1945;52.036;8.614;2023-06-10T13:17:03;27.60;99.90
3860;DHT22;1945;52.036;8.614;2023-06-10T13:19:31;27.50;99.90
3860;DHT22;1945;52.036;8.614;2023-06-10T13:21:57;27.60;99.90
3860;DHT22;1945;52.036;8.614;2023-06-10T13:24:24;27.60;99.90
3860;DHT22;1945;52.036;8.614;2023-06-10T13:26:51;27.70;99.90
3860;DHT22;1945;52.036;8.614;2023-06-10T13:29:20;27.70;99.90
3860;DHT22;1945;52.036;8.614;2023-06-10T13:31:47;27.70;1.00
3860;DHT22;1945;52.036;8.614;2023-06-10T13:34:13;27.60;99.90
3860;DHT22;1945;52.036;8.614;2023-06-10T13:36:40;27.80;1.00
3860;DHT22;1945;52.036;8.614;2023-06-10T13:39:07;27.80;99.90
3860;DHT22;1945;52.036;8.614;2023-06-10T13:41:34;27.70;99.90
3860;DHT22;1945;52.036;8.614;2023-06-10T13:44:01;27.80;99.90
3860;DHT22;1945;52.036;8.614;2023-06-10T13:46:29;27.70;99.90
3860;DHT22;1945;52.036;8.614;2023-06-10T13:48:56;27.80;99.90
3860;DHT22;1945;52.036;8.614;2023-06-10T13:51:23;27.90;1.00
3860;DHT22;1945;52.036;8.614;2023-06-10T13:53:50;27.90;1.00
3860;DHT22;1945;52.036;8.614;2023-06-10T13:56:17;27.90;99.90
3860;DHT22;1945;52.036;8.614;2023-06-10T13:58:44;27.70;99.90
3860;DHT22;1945;52.036;8.614;2023-06-10T14:01:11;27.80;99.90
3860;DHT22;1945;52.036;8.614;2023-06-10T14:03:39;28.00;1.00
3860;DHT22;1945;52.036;8.614;2023-06-10T14:06:06;27.80;99.90
3860;DHT22;1945;52.036;8.614;2023-06-10T14:08:33;27.80;99.90
3860;DHT22;1945;52.036;8.614;2023-06-10T14:11:00;27.90;99.90
3860;DHT22;1945;52.036;8.614;2023-06-10T14:13:27;27.80;99.90
3860;DHT22;1945;52.036;8.614;2023-06-10T14:15:55;27.90;99.90
3860;DHT22;1945;52.036;8.614;2023-06-10T14:18:21;27.80;99.90
3860;DHT22;1945;52.036;8.614;2023-06-10T14:20:50;27.80;99.90
3860;DHT22;1945;52.036;8.614;2023-06-10T14:23:16;27.70;99.90
3860;DHT22;1945;52.036;8.614;2023-06-10T14:25:43;27.60;99.90
3860;DHT22;1945;52.036;8.614;2023-06-10T14:28:10;27.80;99.90
3860;DHT22;1945;52.036;8.614;2023-06-10T14:30:36;27.70;99.90
3860;DHT22;1945;52.036;8.614;2023-06-10T14:33:03;27.70;99.90
3860;DHT22;1945;52.036;8.614;2023-06-10T14:35:31;27.80;99.90
3860;DHT22;1945;52.036;8.614;2023-06-10T14:37:59;27.90;1.00
3860;DHT22;1945;52.036;8.614;2023-06-10T14:40:26;27.80;99.90
3860;DHT22;1945;52.036;8.614;2023-06-10T14:42:54;27.80;99.90
3860;DHT22;1945;52.036;8.614;2023-06-10T14:45:21;27.80;99.90
3860;DHT22;1945;52.036;8.614;2023-06-10T14:47:50;27.80;99.90
3860;DHT22;1945;52.036;8.614;2023-06-10T14:50:17;27.70;99.90
3860;DHT22;1945;52.036;8.614;2023-06-10T14:52:44;27.80;1.00
3860;DHT22;1945;52.036;8.614;2023-06-10T14:55:12;27.70;99.90
3860;DHT22;1945;52.036;8.614;2023-06-10T14:57:38;27.70;99.90
3860;DHT22;1945;52.036;8.614;2023-06-10T15:00:09;27.70;1.00
3860;DHT22;1945;52.036;8.614;2023-06-10T15:02:36;27.80;1.00
3860;DHT22;1945;52.036;8.614;2023-06-10T15:05:03;27.80;1.00
3860;DHT22;1945;52.036;8.614;2023-06-10T15:07:30;27.70;99.90
3860;DHT22;1945;52.036;8.614;2023-06-10T15:09:57;27.80;1.00
3860;DHT22;1945;52.036;8.614;2023-06-10T15:12:25;27.90;1.00
3860;DHT22;1945;52.036;8.614;2023-06-10T15:14:53;27.80;99.90
3860;DHT22;1945;52.036;8.614;2023-06-10T15:17:20;27.70;99.90
3860;DHT22;1945;52.036;8.614;2023-06-10T15:19:46;27.80;1.00
3860;DHT22;1945;52.036;8.614;2023-06-10T15:22:13;27.80;99.90
3860;DHT22;1945;52.036;8.614;2023-06-10T15:24:40;27.80;99.90
3860;DHT22;1945;52.036;8.614;2023-06-10T15:27:06;27.80;99.90
3860;DHT22;1945;52.036;8.614;2023-06-10T15:29:34;27.90;99.90
3860;DHT22;1945;52.036;8.614;2023-06-10T15:32:01;27.90;99.90
3860;DHT22;1945;52.036;8.614;2023-06-10T15:34:28;27.80;99.90
3860;DHT22;1945;52.036;8.614;2023-06-10T15:36:54;27.80;99.90
3860;DHT22;1945;52.036;8.614;2023-06-10T15:39:21;27.70;99.90
3860;DHT22;1945;52.036;8.614;2023-06-10T15:41:50;27.70;99.90
3860;DHT22;1945;52.036;8.614;2023-06-10T15:44:16;27.70;99.90
3860;DHT22;1945;52.036;8.614;2023-06-10T15:46:44;27.70;99.90
3860;DHT22;1945;52.036;8.614;2023-06-10T15:49:11;27.80;99.90
3860;DHT22;1945;52.036;8.614;2023-06-10T15:51:38;27.70;99.90
3860;DHT22;1945;52.036;8.614;2023-06-10T15:54:05;27.60;99.90
3860;DHT22;1945;52.036;8.614;2023-06-10T15:56:31;27.60;1.00
3860;DHT22;1945;52.036;8.614;2023-06-10T15:58:58;27.60;99.90
3860;DHT22;1945;52.036;8.614;2023-06-10T16:01:25;27.60;99.90
3860;DHT22;1945;52.036;8.614;2023-06-10T16:03:53;27.60;99.90
3860;DHT22;1945;52.036;8.614;2023-06-10T16:06:19;27.50;99.90
3860;DHT22;1945;52.036;8.614;2023-06-10T16:08:46;27.60;99.90
3860;DHT22;1945;52.036;8.614;2023-06-10T16:11:13;27.60;99.90
3860;DHT22;1945;52.036;8.614;2023-06-10T16:13:40;27.70;99.90
3860;DHT22;1945;52.036;8.614;2023-06-10T16:16:07;27.60;99.90